createdAt,value
2023-01-21T00:10:13.789Z,-2
2023-01-21T00:29:25.953Z,-2.7
2023-01-21T00:48:40.071Z,-2.3
2023-01-21T01:07:53.060Z,-2.3
2023-01-21T01:27:05.237Z,-2.7
2023-01-21T01:46:19.483Z,-2.7
2023-01-21T02:05:29.057Z,-2.9
2023-01-21T02:24:42.755Z,-2.9
2023-01-21T02:43:56.994Z,-2.6
2023-01-21T03:03:09.299Z,-3.2
2023-01-21T03:22:23.429Z,-3.5
2023-01-21T03:41:36.406Z,-3.8
2023-01-21T04:00:51.010Z,-3.6
2023-01-21T04:20:04.368Z,-3.3
2023-01-21T04:39:18.932Z,-3.3
2023-01-21T04:58:31.500Z,-3.7
2023-01-21T05:17:45.122Z,-3.7
2023-01-21T05:36:57.920Z,-3.6
2023-01-21T05:56:11.592Z,-3.6
2023-01-21T06:15:25.294Z,-3.7
2023-01-21T06:34:38.306Z,-3.8
2023-01-21T06:53:52.477Z,-3.9
2023-01-21T07:13:05.608Z,-4
2023-01-21T07:32:19.065Z,-4.4
2023-01-21T07:51:32.329Z,-4
2023-01-21T08:10:47.634Z,-3.3
2023-01-21T08:30:03.848Z,-3
2023-01-21T08:49:18.170Z,-2.9
2023-01-21T09:08:31.548Z,-2.2
2023-01-21T09:27:47.169Z,-1.6
2023-01-21T09:47:03.987Z,-0.9
2023-01-21T10:06:16.014Z,-0.5
2023-01-21T10:25:31.292Z,-0.3
2023-01-21T10:44:43.596Z,-0.3
2023-01-21T11:03:57.225Z,-0.1
2023-01-21T11:23:11.420Z,-0.1
2023-01-21T11:42:26.387Z,-0.1
2023-01-21T12:01:40.302Z,-0.5
2023-01-21T12:20:55.511Z,-0.7
2023-01-21T12:40:11.444Z,-0.2
2023-01-21T12:59:24.803Z,-0.7
2023-01-21T13:18:38.951Z,-0.7
2023-01-21T13:37:53.002Z,-0.3
2023-01-21T13:57:03.165Z,-0.7
2023-01-21T14:16:16.970Z,-0.8
2023-01-21T14:35:29.329Z,-0.7
2023-01-21T14:54:45.290Z,-0.3
2023-01-21T15:13:59.443Z,-0.7
2023-01-21T15:33:12.877Z,-1
2023-01-21T15:52:25.748Z,-1
2023-01-21T16:11:39.201Z,-0.8
2023-01-21T16:30:53.534Z,-0.8
2023-01-21T16:50:03.397Z,-0.8
2023-01-21T17:09:17.086Z,-0.9
2023-01-21T17:28:30.935Z,-0.2
2023-01-21T17:48:14.977Z,-0.5
2023-01-21T18:07:07.466Z,-0.5
2023-01-21T18:26:21.331Z,-0.6
2023-01-21T18:45:35.692Z,-0.6
2023-01-21T19:04:47.389Z,-0.2
2023-01-21T19:24:01.598Z,-0.3
2023-01-21T19:43:16.679Z,-0.4
2023-01-21T20:02:28.835Z,-0.5
2023-01-21T20:22:03.389Z,-0.4
2023-01-21T20:41:01.283Z,-0.2
2023-01-21T21:00:13.252Z,0.1
2023-01-21T21:19:27.267Z,0.3
2023-01-21T21:38:40.356Z,0.4
2023-01-21T21:57:56.054Z,0.7
2023-01-21T22:17:09.437Z,0.5
2023-01-21T22:36:25.148Z,0.3
2023-01-21T22:55:39.907Z,0.5
2023-01-21T23:14:55.286Z,0.2
2023-01-21T23:34:10.020Z,0.7
2023-01-21T23:53:23.820Z,0.4
